Terminal Aerodrome Forecast
Issued by NWS Pittsburgh, PA

Current Version | Previous Version | Graphics & Text | Print | Product List | Glossary On
Versions: 1 2 3 4 5 6 7 8 9 10 11 12 13 14 15 16 17 18 19 20 21 22 23 24 25 26 27 28 29
000
FTUS41 KPBZ 092333
TAFPIT
TAF
KPIT 092333Z 1000/1106 21007KT 6SM -SN SCT030 OVC060
     FM100200 26010KT 5SM -SN OVC020
      TEMPO 1002/1004 2SM -SN OVC015
     FM100600 28010KT P6SM VCSH BKN020
     FM101300 28012G20KT P6SM BKN025
     FM101700 26012G21KT P6SM BKN035=

USA.gov is the U.S. government's official web portal to all federal, state and local government web resources and services.